Dzaoudzi/Pamanzi, Mayotte
Current Conditions -  °F | °C
As of 9:30 AM on Wednesday 22 Oct 2014 (Local Time) from FMCZ Reporting Station
Scattered Clouds Scattered Clouds  
Wind Chill: 84°   Ceiling: Unl
Heat Index: 88°   Visibility: 6mi
Dew Point: 70°   Wind: 9mph
Humidity: 62%   Direction: 180°S
Pressure: 30"   Gusts: NA
Location:  12.81°S, 45.28°E
Report Text: FMCZ 220630Z 18008KT 9999 SCT023 29/21 Q1016 NOSIG
Loading
Personal Weather Stations






























Interactive Weather Map
Tropical Storm Tracking
New forecast layout! Learn more

10-Day Weather Forecast

Advertisements
Track Severe Weather on mobile